createdAt,value
2023-03-21T00:00:05.990Z,72.46
2023-03-21T00:02:58.336Z,72.43
2023-03-21T00:05:51.978Z,72.34
2023-03-21T00:08:50.468Z,71.82
2023-03-21T00:11:23.554Z,71.87
2023-03-21T00:13:58.578Z,71.87
2023-03-21T00:16:36.738Z,71.54
2023-03-21T00:19:13.180Z,71.69
2023-03-21T00:22:05.504Z,72.00
2023-03-21T00:24:39.454Z,71.82
2023-03-21T00:27:39.725Z,72.14
2023-03-21T00:30:07.583Z,71.83
2023-03-21T00:32:55.189Z,71.50
2023-03-21T00:36:06.450Z,71.37
2023-03-21T00:38:21.545Z,71.62
2023-03-21T00:40:55.087Z,71.72
2023-03-21T00:43:30.220Z,71.33
2023-03-21T00:46:03.109Z,71.94
2023-03-21T00:48:35.975Z,71.36
2023-03-21T00:51:16.662Z,71.43
2023-03-21T00:53:49.782Z,71.24
2023-03-21T00:56:22.395Z,71.51
2023-03-21T00:58:55.824Z,71.73
2023-03-21T01:01:34.695Z,71.70
2023-03-21T01:04:14.609Z,71.76
2023-03-21T01:06:48.741Z,71.85
2023-03-21T01:09:24.261Z,71.86
2023-03-21T01:11:57.468Z,71.52
2023-03-21T01:14:31.610Z,71.60
2023-03-21T01:17:04.522Z,71.81
2023-03-21T01:19:51.117Z,71.44
2023-03-21T01:22:25.576Z,71.12
2023-03-21T01:25:08.870Z,71.39
2023-03-21T01:27:46.380Z,71.53
2023-03-21T01:30:23.016Z,71.48
2023-03-21T01:32:57.226Z,71.37
2023-03-21T01:35:34.463Z,71.57
2023-03-21T01:38:11.092Z,71.62
2023-03-21T01:40:45.794Z,71.75
2023-03-21T01:43:33.243Z,71.95
2023-03-21T01:46:32.328Z,72.04
2023-03-21T01:49:26.224Z,71.92
2023-03-21T01:52:15.194Z,71.47
2023-03-21T01:54:51.345Z,71.40
2023-03-21T01:57:43.610Z,71.49
2023-03-21T02:00:21.657Z,70.91
2023-03-21T02:03:11.068Z,70.81
2023-03-21T02:06:04.996Z,70.34
2023-03-21T02:08:41.349Z,70.39
2023-03-21T02:11:19.140Z,70.40
2023-03-21T02:14:01.051Z,70.26
2023-03-21T02:16:51.858Z,70.64
2023-03-21T02:20:01.065Z,70.67
2023-03-21T02:22:59.727Z,70.63
2023-03-21T02:26:04.779Z,70.53
2023-03-21T02:28:43.374Z,70.20
2023-03-21T02:31:32.361Z,70.10
2023-03-21T02:34:38.452Z,69.96
2023-03-21T02:37:26.057Z,70.16
2023-03-21T02:40:11.320Z,70.42
2023-03-21T02:43:01.479Z,70.28
2023-03-21T02:45:46.675Z,70.29
2023-03-21T02:48:31.184Z,70.28
2023-03-21T02:51:12.679Z,69.94
2023-03-21T02:53:53.318Z,69.91
2023-03-21T02:56:34.777Z,70.06
2023-03-21T02:59:10.372Z,69.92
2023-03-21T03:01:43.406Z,69.78
2023-03-21T03:04:25.193Z,69.90
2023-03-21T03:07:25.651Z,69.99
2023-03-21T03:10:23.311Z,70.18
2023-03-21T03:13:09.567Z,70.42
2023-03-21T03:15:48.818Z,70.59
2023-03-21T03:18:30.897Z,70.83
2023-03-21T03:21:18.163Z,70.91
2023-03-21T03:23:54.911Z,70.73
2023-03-21T03:26:32.163Z,71.05
2023-03-21T03:29:09.096Z,71.31
2023-03-21T03:31:46.278Z,71.32
2023-03-21T03:34:22.365Z,71.40
2023-03-21T03:36:58.572Z,71.24
2023-03-21T03:39:37.150Z,71.33
2023-03-21T03:42:27.600Z,71.68
2023-03-21T03:45:07.037Z,71.78
2023-03-21T03:47:55.993Z,71.67
2023-03-21T03:50:33.664Z,72.08
2023-03-21T03:53:18.533Z,72.49
2023-03-21T03:55:51.269Z,72.11
2023-03-21T03:58:36.092Z,72.02
2023-03-21T04:01:17.169Z,72.09
2023-03-21T04:03:58.379Z,72.21
2023-03-21T04:06:36.382Z,71.93
2023-03-21T04:09:20.538Z,72.20
2023-03-21T04:11:55.545Z,72.45
2023-03-21T04:14:42.089Z,72.52
2023-03-21T04:17:17.600Z,72.68
2023-03-21T04:19:55.547Z,72.59
2023-03-21T04:22:31.350Z,72.37
2023-03-21T04:25:05.409Z,72.45
2023-03-21T04:27:38.643Z,72.99
2023-03-21T04:30:29.712Z,72.55
2023-03-21T04:33:12.366Z,72.28
2023-03-21T04:35:46.210Z,72.91
2023-03-21T04:38:19.213Z,72.63
2023-03-21T04:40:52.275Z,72.49
2023-03-21T04:43:25.233Z,72.37
2023-03-21T04:45:59.575Z,72.47
2023-03-21T04:48:31.270Z,72.99
2023-03-21T04:51:06.089Z,73.12
2023-03-21T04:53:39.839Z,73.45
2023-03-21T04:56:14.166Z,73.42
2023-03-21T04:58:47.174Z,73.56
2023-03-21T05:01:20.912Z,73.74
2023-03-21T05:03:53.909Z,73.84
2023-03-21T05:06:27.950Z,73.39
2023-03-21T05:09:05.587Z,73.35
2023-03-21T05:11:41.108Z,73.18
2023-03-21T05:14:16.174Z,73.22
2023-03-21T05:16:53.389Z,73.67
2023-03-21T05:19:34.953Z,74.06
2023-03-21T05:22:11.299Z,74.17
2023-03-21T05:24:50.221Z,74.15
2023-03-21T05:27:46.325Z,74.30
2023-03-21T05:30:21.540Z,74.25
2023-03-21T05:32:53.134Z,74.69
2023-03-21T05:35:26.961Z,75.43
2023-03-21T05:38:00.704Z,75.54
2023-03-21T05:40:36.195Z,76.06
2023-03-21T05:43:10.209Z,76.12
2023-03-21T05:45:49.166Z,75.75
2023-03-21T05:48:22.465Z,75.66
2023-03-21T05:51:14.240Z,75.10
2023-03-21T05:53:47.437Z,75.68
2023-03-21T05:56:22.244Z,76.15
2023-03-21T05:59:01.729Z,76.15
2023-03-21T06:01:35.859Z,75.85
2023-03-21T06:04:17.232Z,75.84
2023-03-21T06:06:51.047Z,76.20
2023-03-21T06:09:24.388Z,76.39
2023-03-21T06:12:01.581Z,76.11
2023-03-21T06:14:55.152Z,75.59
2023-03-21T06:17:34.815Z,74.86
2023-03-21T06:20:13.060Z,75.34
2023-03-21T06:22:50.026Z,76.12
2023-03-21T06:25:23.120Z,76.18
2023-03-21T06:27:56.742Z,76.45
2023-03-21T06:30:29.604Z,76.66
2023-03-21T06:33:17.954Z,76.48
2023-03-21T06:35:56.424Z,76.30
2023-03-21T06:38:29.756Z,76.22
2023-03-21T06:41:04.781Z,75.19
2023-03-21T06:43:40.050Z,75.09
2023-03-21T06:46:14.075Z,75.50
2023-03-21T06:48:47.544Z,74.81
2023-03-21T06:51:20.690Z,75.36
2023-03-21T06:54:03.112Z,74.82
2023-03-21T06:56:50.349Z,74.57
2023-03-21T06:59:28.581Z,74.98
2023-03-21T07:02:07.564Z,75.35
2023-03-21T07:04:44.879Z,75.00
2023-03-21T07:07:26.125Z,75.43
2023-03-21T07:09:59.303Z,75.23
2023-03-21T07:12:34.349Z,74.93
2023-03-21T07:15:15.687Z,74.56
2023-03-21T07:17:49.352Z,74.13
2023-03-21T07:20:22.363Z,74.48
2023-03-21T07:22:55.079Z,74.11
2023-03-21T07:25:28.336Z,74.09
2023-03-21T07:28:01.801Z,74.54
2023-03-21T07:30:34.857Z,73.87
2023-03-21T07:33:08.741Z,73.61
2023-03-21T07:35:41.994Z,73.80
2023-03-21T07:38:16.928Z,74.32
2023-03-21T07:40:50.602Z,74.46
2023-03-21T07:43:23.690Z,74.21
2023-03-21T07:46:01.671Z,73.98
2023-03-21T07:48:34.620Z,73.88
2023-03-21T07:51:07.993Z,74.10
2023-03-21T07:53:42.069Z,74.44
2023-03-21T07:56:14.967Z,73.98
2023-03-21T07:58:47.632Z,73.89
2023-03-21T08:01:22.120Z,74.27
2023-03-21T08:03:55.122Z,74.14
2023-03-21T08:06:32.477Z,74.01
2023-03-21T08:09:06.001Z,73.83
2023-03-21T08:11:38.816Z,73.13
2023-03-21T08:14:11.868Z,73.52
2023-03-21T08:16:45.005Z,73.15
2023-03-21T08:19:18.840Z,73.00
2023-03-21T08:21:52.221Z,73.36
2023-03-21T08:24:24.641Z,73.36
2023-03-21T08:26:57.371Z,73.88
2023-03-21T08:29:30.231Z,73.25
2023-03-21T08:32:03.389Z,73.23
2023-03-21T08:34:36.628Z,73.71
2023-03-21T08:37:09.444Z,73.94
2023-03-21T08:39:42.119Z,74.51
2023-03-21T08:42:15.176Z,74.20
2023-03-21T08:44:48.068Z,74.34
2023-03-21T08:47:20.885Z,73.94
2023-03-21T08:49:53.488Z,73.87
2023-03-21T08:52:27.226Z,74.62
2023-03-21T08:54:59.765Z,74.43
2023-03-21T08:57:32.619Z,74.26
2023-03-21T09:00:12.246Z,73.84
2023-03-21T09:02:46.009Z,74.23
2023-03-21T09:05:19.619Z,73.79
2023-03-21T09:07:52.963Z,73.94
2023-03-21T09:10:25.893Z,73.45
2023-03-21T09:12:59.033Z,73.07
2023-03-21T09:15:31.998Z,72.95
2023-03-21T09:18:16.069Z,72.93
2023-03-21T09:20:50.534Z,72.45
2023-03-21T09:23:23.698Z,72.69
2023-03-21T09:25:56.492Z,73.47
2023-03-21T09:28:29.577Z,73.22
2023-03-21T09:31:04.125Z,72.63
2023-03-21T09:33:37.343Z,72.58
2023-03-21T09:36:14.599Z,72.81
2023-03-21T09:38:48.285Z,72.55
2023-03-21T09:41:33.565Z,71.75
2023-03-21T09:44:23.136Z,71.17
2023-03-21T09:47:02.679Z,71.68
2023-03-21T09:49:41.804Z,71.01
2023-03-21T09:52:20.390Z,71.39
2023-03-21T09:54:53.966Z,71.17
2023-03-21T09:57:33.470Z,70.51
2023-03-21T10:00:15.976Z,69.80
2023-03-21T10:02:51.964Z,69.15
2023-03-21T10:05:27.885Z,68.80
2023-03-21T10:08:04.740Z,68.97
2023-03-21T10:10:41.706Z,69.34
2023-03-21T10:13:19.126Z,70.15
2023-03-21T10:15:51.932Z,70.27
2023-03-21T10:18:28.825Z,69.97
2023-03-21T10:21:02.565Z,69.60
2023-03-21T10:23:35.304Z,69.32
2023-03-21T10:26:10.283Z,68.87
2023-03-21T10:28:53.078Z,68.76
2023-03-21T10:31:30.285Z,68.93
2023-03-21T10:37:36.519Z,68.38
2023-03-21T10:40:16.594Z,68.72
2023-03-21T10:42:49.295Z,67.65
2023-03-21T10:45:23.733Z,66.75
2023-03-21T10:47:58.407Z,67.43
2023-03-21T10:50:30.798Z,67.33
2023-03-21T10:53:04.636Z,66.58
2023-03-21T10:55:42.113Z,66.76
2023-03-21T10:58:25.377Z,65.84
2023-03-21T11:01:02.702Z,65.82
2023-03-21T11:03:38.541Z,66.54
2023-03-21T11:06:18.352Z,66.05
2023-03-21T11:08:55.611Z,65.49
2023-03-21T11:11:34.466Z,65.24
2023-03-21T11:14:09.403Z,64.92
2023-03-21T11:16:43.880Z,63.76
2023-03-21T11:19:18.319Z,63.58
2023-03-21T11:21:51.226Z,63.22
2023-03-21T11:24:24.871Z,63.24
2023-03-21T11:26:59.123Z,62.06
2023-03-21T11:29:34.265Z,62.00
2023-03-21T11:32:13.981Z,61.60
2023-03-21T11:34:50.038Z,61.09
2023-03-21T11:37:27.212Z,61.55
2023-03-21T11:40:19.234Z,61.34
2023-03-21T11:42:53.381Z,61.27
2023-03-21T11:45:28.346Z,61.33
2023-03-21T11:48:02.734Z,62.06
2023-03-21T11:50:38.656Z,62.52
2023-03-21T11:53:28.071Z,61.19
2023-03-21T11:56:13.608Z,60.63
2023-03-21T11:59:01.324Z,60.25
2023-03-21T12:01:43.938Z,60.11
2023-03-21T12:04:35.414Z,60.05
2023-03-21T12:07:20.662Z,59.86
2023-03-21T12:10:01.206Z,60.18
2023-03-21T12:12:46.072Z,60.08
2023-03-21T12:15:26.242Z,59.68
2023-03-21T12:18:08.250Z,59.48
2023-03-21T12:20:46.323Z,59.47
2023-03-21T12:23:44.073Z,59.50
2023-03-21T12:26:27.142Z,59.40
2023-03-21T12:29:15.683Z,60.03
2023-03-21T12:31:56.973Z,60.50
2023-03-21T12:34:44.178Z,59.72
2023-03-21T12:37:25.787Z,59.61
2023-03-21T12:40:07.580Z,59.76
2023-03-21T12:43:01.670Z,59.61
2023-03-21T12:45:46.698Z,59.99
2023-03-21T12:48:27.298Z,59.73
2023-03-21T12:51:03.823Z,60.05
2023-03-21T12:53:45.848Z,59.45
2023-03-21T12:56:24.049Z,59.77
2023-03-21T12:59:03.333Z,60.44
2023-03-21T13:01:40.282Z,60.37
2023-03-21T13:04:29.760Z,60.88
2023-03-21T13:07:04.394Z,60.70
2023-03-21T13:09:40.529Z,61.22
2023-03-21T13:12:27.205Z,60.73
2023-03-21T13:15:31.497Z,61.34
2023-03-21T13:18:13.763Z,61.68
2023-03-21T13:20:50.628Z,62.39
2023-03-21T13:23:25.633Z,61.95
2023-03-21T13:26:00.420Z,61.75
2023-03-21T13:28:32.556Z,62.30
2023-03-21T13:31:23.743Z,62.39
2023-03-21T13:34:00.423Z,61.58
2023-03-21T13:36:37.954Z,61.01
2023-03-21T13:39:21.907Z,61.81
2023-03-21T13:41:56.169Z,61.78
2023-03-21T13:44:40.992Z,62.13
2023-03-21T13:47:44.378Z,61.79
2023-03-21T13:50:38.099Z,61.44
2023-03-21T13:53:27.375Z,62.39
2023-03-21T13:56:10.693Z,62.45
2023-03-21T13:58:55.406Z,62.49
2023-03-21T14:01:35.786Z,61.34
2023-03-21T14:04:17.533Z,61.46
2023-03-21T14:06:56.412Z,61.38
2023-03-21T14:09:35.029Z,61.96
2023-03-21T14:12:12.438Z,61.70
2023-03-21T14:14:48.058Z,62.11
2023-03-21T14:17:26.686Z,62.29
2023-03-21T14:20:11.376Z,62.48
2023-03-21T14:22:47.593Z,61.75
2023-03-21T14:25:21.901Z,61.42
2023-03-21T14:27:59.738Z,61.45
2023-03-21T14:30:36.164Z,61.12
2023-03-21T14:33:17.420Z,60.32
2023-03-21T14:35:51.060Z,60.58
2023-03-21T14:38:26.510Z,59.88
2023-03-21T14:40:59.424Z,60.32
2023-03-21T14:43:34.242Z,59.54
2023-03-21T14:46:07.988Z,60.28
2023-03-21T14:48:41.305Z,59.76
2023-03-21T14:51:14.553Z,60.23
2023-03-21T14:53:48.092Z,60.32
2023-03-21T14:56:25.290Z,60.70
2023-03-21T14:58:58.057Z,60.57
2023-03-21T15:01:34.838Z,60.91
2023-03-21T15:04:09.837Z,60.88
2023-03-21T15:06:51.778Z,60.40
2023-03-21T15:09:28.331Z,60.58
2023-03-21T15:12:01.572Z,61.58
2023-03-21T15:14:36.839Z,61.41
2023-03-21T15:17:11.523Z,61.56
2023-03-21T15:19:43.799Z,61.73
2023-03-21T15:22:25.104Z,62.51
2023-03-21T15:25:04.547Z,62.09
2023-03-21T15:27:42.302Z,61.90
2023-03-21T15:30:23.833Z,62.19
2023-03-21T15:32:57.000Z,62.63
2023-03-21T15:35:34.722Z,62.65
2023-03-21T15:38:07.566Z,62.80
2023-03-21T15:40:40.670Z,62.67
2023-03-21T15:43:18.995Z,62.89
2023-03-21T15:45:56.413Z,63.27
2023-03-21T15:48:30.518Z,63.01
2023-03-21T15:51:07.581Z,63.72
2023-03-21T15:53:44.919Z,64.10
2023-03-21T15:56:17.803Z,63.82
2023-03-21T15:58:53.549Z,63.58
2023-03-21T16:01:26.703Z,64.10
2023-03-21T16:04:04.335Z,63.94
2023-03-21T16:06:39.682Z,63.97
2023-03-21T16:09:22.178Z,64.23
2023-03-21T16:11:56.554Z,64.72
2023-03-21T16:14:29.959Z,64.89
2023-03-21T16:17:02.892Z,65.14
2023-03-21T16:19:35.982Z,65.12
2023-03-21T16:22:12.153Z,64.98
2023-03-21T16:24:45.253Z,65.29
2023-03-21T16:27:20.186Z,65.03
2023-03-21T16:29:51.271Z,65.17
2023-03-21T16:32:24.201Z,65.33
2023-03-21T16:34:56.983Z,65.09
2023-03-21T16:37:29.944Z,65.22
2023-03-21T16:40:05.904Z,65.69
2023-03-21T16:42:38.818Z,65.51
2023-03-21T16:45:12.718Z,65.43
2023-03-21T16:47:45.815Z,65.51
2023-03-21T16:50:31.811Z,65.47
2023-03-21T16:53:05.696Z,65.55
2023-03-21T16:55:39.473Z,65.80
2023-03-21T16:58:15.914Z,66.29
2023-03-21T17:00:48.888Z,66.32
2023-03-21T17:03:22.139Z,66.19
2023-03-21T17:05:54.863Z,66.37
2023-03-21T17:08:29.246Z,67.93
2023-03-21T17:11:06.477Z,66.36
2023-03-21T17:13:39.345Z,66.50
2023-03-21T17:16:12.911Z,66.65
2023-03-21T17:18:46.325Z,66.97
2023-03-21T17:21:21.153Z,67.37
2023-03-21T17:23:56.684Z,67.29
2023-03-21T17:26:30.972Z,67.24
2023-03-21T17:29:04.246Z,67.16
2023-03-21T17:42:11.664Z,67.03
2023-03-21T17:44:44.246Z,67.11
2023-03-21T17:47:17.695Z,67.08
2023-03-21T17:49:51.664Z,67.42
2023-03-21T17:52:24.815Z,67.19
2023-03-21T17:54:58.745Z,67.35
2023-03-21T17:57:31.645Z,67.51
2023-03-21T18:00:10.014Z,67.56
2023-03-21T18:02:44.656Z,67.54
2023-03-21T18:05:17.953Z,67.69
2023-03-21T18:08:09.428Z,67.73
2023-03-21T18:10:43.062Z,67.66
2023-03-21T18:13:16.566Z,67.73
2023-03-21T18:15:50.691Z,67.73
2023-03-21T18:18:23.553Z,67.62
2023-03-21T18:20:58.332Z,67.46
2023-03-21T18:23:32.372Z,67.39
2023-03-21T18:26:05.519Z,67.35
2023-03-21T18:28:39.995Z,67.39
2023-03-21T18:31:19.826Z,67.27
2023-03-21T18:33:52.945Z,67.32
2023-03-21T18:36:28.611Z,67.46
2023-03-21T18:39:03.522Z,67.59
2023-03-21T18:41:37.666Z,67.72
2023-03-21T18:44:17.448Z,67.76
2023-03-21T18:46:51.790Z,67.82
2023-03-21T18:50:05.985Z,67.90
2023-03-21T18:52:18.221Z,68.31
2023-03-21T18:54:51.074Z,68.41
2023-03-21T18:57:36.516Z,68.66
2023-03-21T19:00:13.993Z,68.51
2023-03-21T19:02:50.830Z,68.58
2023-03-21T19:05:26.042Z,68.65
2023-03-21T19:07:58.948Z,68.73
2023-03-21T19:10:31.734Z,68.72
2023-03-21T19:13:04.608Z,68.74
2023-03-21T19:15:38.591Z,68.97
2023-03-21T19:18:37.907Z,69.03
2023-03-21T19:21:06.447Z,69.10
2023-03-21T19:24:19.412Z,69.39
2023-03-21T19:26:33.839Z,69.40
2023-03-21T19:29:07.260Z,69.58
2023-03-21T19:31:40.249Z,69.77
2023-03-21T19:34:13.926Z,69.69
2023-03-21T19:36:51.566Z,69.56
2023-03-21T19:39:25.796Z,69.80
2023-03-21T19:42:14.959Z,70.03
2023-03-21T19:44:49.347Z,69.94
2023-03-21T19:47:22.533Z,69.88
2023-03-21T19:50:40.797Z,69.87
2023-03-21T19:52:48.684Z,70.21
2023-03-21T19:55:21.546Z,69.87
2023-03-21T19:57:54.140Z,70.15
2023-03-21T20:00:27.632Z,69.85
2023-03-21T20:03:00.975Z,69.81
2023-03-21T20:05:34.023Z,69.69
2023-03-21T20:08:10.624Z,69.49
2023-03-21T20:10:46.526Z,69.67
2023-03-21T20:13:19.121Z,69.62
2023-03-21T20:15:55.183Z,69.60
2023-03-21T20:18:29.883Z,69.61
2023-03-21T20:21:04.442Z,69.87
2023-03-21T20:23:39.090Z,69.76
2023-03-21T20:26:14.200Z,69.62
2023-03-21T20:29:01.208Z,69.70
2023-03-21T20:31:41.719Z,69.85
2023-03-21T20:34:14.781Z,69.73
2023-03-21T20:36:48.363Z,69.79
2023-03-21T20:39:21.407Z,69.76
2023-03-21T20:41:54.964Z,69.96
2023-03-21T20:44:51.979Z,69.95
2023-03-21T20:47:20.677Z,70.08
2023-03-21T20:49:55.172Z,70.02
2023-03-21T20:52:57.493Z,70.11
2023-03-21T20:55:22.606Z,70.15
2023-03-21T20:57:56.304Z,70.19
2023-03-21T21:00:29.680Z,70.08
2023-03-21T21:03:04.178Z,70.18
2023-03-21T21:05:38.277Z,70.24
2023-03-21T21:08:12.571Z,70.25
2023-03-21T21:11:24.294Z,70.26
2023-03-21T21:13:39.022Z,70.23
2023-03-21T21:16:13.185Z,70.23
2023-03-21T21:18:46.366Z,70.37
2023-03-21T21:21:19.298Z,70.21
2023-03-21T21:23:52.046Z,70.15
2023-03-21T21:26:25.065Z,70.18
2023-03-21T21:29:00.474Z,70.13
2023-03-21T21:31:35.849Z,70.16
2023-03-21T21:34:09.156Z,70.12
2023-03-21T21:36:43.211Z,70.09
2023-03-21T21:39:17.228Z,70.17
2023-03-21T21:41:50.133Z,70.13
2023-03-21T21:44:23.064Z,70.03
2023-03-21T21:46:57.720Z,69.93
2023-03-21T21:49:30.219Z,70.12
2023-03-21T21:52:05.999Z,70.28
2023-03-21T21:54:39.417Z,70.20
2023-03-21T21:57:12.137Z,70.32
2023-03-21T21:59:45.240Z,70.09
2023-03-21T22:02:19.784Z,69.98
2023-03-21T22:04:51.642Z,70.04
2023-03-21T22:07:24.964Z,70.34
2023-03-21T22:09:58.014Z,70.11
2023-03-21T22:12:30.806Z,70.49
2023-03-21T22:15:04.119Z,70.58
2023-03-21T22:17:37.740Z,70.48
2023-03-21T22:20:12.932Z,70.26
2023-03-21T22:22:46.105Z,70.64
2023-03-21T22:25:19.865Z,70.60
2023-03-21T22:27:52.349Z,70.29
2023-03-21T22:30:25.570Z,70.01
2023-03-21T22:33:08.790Z,69.86
2023-03-21T22:35:43.269Z,70.14
2023-03-21T22:38:18.048Z,69.77
2023-03-21T22:40:56.565Z,69.66
2023-03-21T22:43:29.229Z,69.63
2023-03-21T22:46:02.696Z,69.64
2023-03-21T22:48:36.372Z,69.87
2023-03-21T22:51:10.495Z,69.99
2023-03-21T22:53:43.241Z,69.94
2023-03-21T22:56:16.472Z,69.80
2023-03-21T22:58:49.228Z,69.83
2023-03-21T23:01:22.373Z,69.88
2023-03-21T23:03:55.099Z,69.82
2023-03-21T23:06:28.326Z,69.77
2023-03-21T23:09:01.016Z,69.69
2023-03-21T23:11:33.703Z,69.84
2023-03-21T23:14:08.427Z,70.05
2023-03-21T23:16:41.114Z,69.98
2023-03-21T23:19:14.166Z,70.24
2023-03-21T23:21:47.474Z,70.04
2023-03-21T23:24:20.561Z,70.06
2023-03-21T23:26:53.328Z,70.11
2023-03-21T23:29:25.842Z,69.93
2023-03-21T23:31:58.582Z,70.08
2023-03-21T23:34:31.654Z,70.29
2023-03-21T23:37:04.489Z,70.38
2023-03-21T23:39:37.341Z,70.46
2023-03-21T23:42:10.174Z,70.65
2023-03-21T23:44:42.970Z,70.76
2023-03-21T23:47:16.940Z,70.35
2023-03-21T23:49:52.816Z,70.72
2023-03-21T23:52:26.220Z,70.82
2023-03-21T23:54:59.145Z,70.93
2023-03-21T23:57:31.992Z,70.97
